AFL240 UNNT-USRR
Flight info
| Callsign | AFL240 |
|---|---|
| Flight time | 1h 21m |
| Altitude | 36000 |
| Route | DIMID R484 BA R104 KUPON R229 KARPO |
| Aircraft | A320/M-V/N |
Departure
| Time | 2026-05-06 08:29 |
|---|---|
| Airport | Novosibirsk Tolmachevo Airport (UNNT) |
Arrival
| Time | 2026-05-06 09:50 |
|---|---|
| Airport | Surgut International Airport (USRR) |
| Time | Latitude | Longitude | Altitude | Speed | Heading |
|---|---|---|---|---|---|
| 2026-05-06 08:03 | 55.01032 | 82.66754 | 373 ft | 0 kts | 170° |
| 2026-05-06 08:10 | 55.01055 | 82.66749 | 373 ft | 4 kts | 181° |
| 2026-05-06 08:10 | 55.01081 | 82.66756 | 373 ft | 4 kts | 205° |
| 2026-05-06 08:11 | 55.01101 | 82.66783 | 373 ft | 4 kts | 245° |
| 2026-05-06 08:11 | 55.01104 | 82.66802 | 373 ft | 0 kts | 265° |
| 2026-05-06 08:13 | 55.01104 | 82.66792 | 373 ft | 3 kts | 264° |
| 2026-05-06 08:14 | 55.01096 | 82.66721 | 373 ft | 5 kts | 259° |
| 2026-05-06 08:14 | 55.01087 | 82.66665 | 373 ft | 6 kts | 250° |
| 2026-05-06 08:14 | 55.01075 | 82.66610 | 373 ft | 8 kts | 248° |
| 2026-05-06 08:14 | 55.01043 | 82.66474 | 373 ft | 11 kts | 248° |
| 2026-05-06 08:15 | 55.01021 | 82.66373 | 373 ft | 7 kts | 250° |
| 2026-05-06 08:15 | 55.01006 | 82.66303 | 373 ft | 10 kts | 250° |
| 2026-05-06 08:15 | 55.00984 | 82.66196 | 373 ft | 8 kts | 250° |
| 2026-05-06 08:15 | 55.00961 | 82.66107 | 373 ft | 14 kts | 248° |
| 2026-05-06 08:16 | 55.00942 | 82.65929 | 373 ft | 14 kts | 261° |
| 2026-05-06 08:16 | 55.00929 | 82.65785 | 373 ft | 10 kts | 261° |
| 2026-05-06 08:16 | 55.00921 | 82.65682 | 373 ft | 7 kts | 261° |
| 2026-05-06 08:16 | 55.00912 | 82.65580 | 373 ft | 11 kts | 261° |
| 2026-05-06 08:17 | 55.00900 | 82.65453 | 373 ft | 10 kts | 261° |
| 2026-05-06 08:17 | 55.00885 | 82.65276 | 373 ft | 20 kts | 264° |
| 2026-05-06 08:17 | 55.00879 | 82.65116 | 373 ft | 20 kts | 263° |
| 2026-05-06 08:17 | 55.00885 | 82.64814 | 373 ft | 19 kts | 258° |
| 2026-05-06 08:18 | 55.00862 | 82.64572 | 373 ft | 27 kts | 262° |
| 2026-05-06 08:18 | 55.00830 | 82.64213 | 373 ft | 30 kts | 261° |
| 2026-05-06 08:18 | 55.00828 | 82.64022 | 373 ft | 8 kts | 316° |
| 2026-05-06 08:18 | 55.00887 | 82.64028 | 373 ft | 10 kts | 18° |
| 2026-05-06 08:19 | 55.00929 | 82.63951 | 373 ft | 14 kts | 271° |
| 2026-05-06 08:19 | 55.00922 | 82.63846 | 373 ft | 13 kts | 261° |
| 2026-05-06 08:19 | 55.00907 | 82.63705 | 373 ft | 13 kts | 264° |
| 2026-05-06 08:19 | 55.00892 | 82.63525 | 373 ft | 18 kts | 261° |
| 2026-05-06 08:20 | 55.00887 | 82.63470 | 373 ft | 0 kts | 261° |
| 2026-05-06 08:20 | 55.00878 | 82.63361 | 373 ft | 8 kts | 261° |
| 2026-05-06 08:20 | 55.00872 | 82.63295 | 373 ft | 4 kts | 261° |
| 2026-05-06 08:20 | 55.00863 | 82.63200 | 373 ft | 21 kts | 261° |
| 2026-05-06 08:21 | 55.00840 | 82.62939 | 373 ft | 21 kts | 261° |
| 2026-05-06 08:21 | 55.00817 | 82.62699 | 373 ft | 19 kts | 261° |
| 2026-05-06 08:21 | 55.00798 | 82.62485 | 373 ft | 17 kts | 260° |
| 2026-05-06 08:21 | 55.00781 | 82.62304 | 373 ft | 14 kts | 260° |
| 2026-05-06 08:22 | 55.00767 | 82.62165 | 373 ft | 10 kts | 260° |
| 2026-05-06 08:22 | 55.00752 | 82.62004 | 373 ft | 14 kts | 261° |
| 2026-05-06 08:22 | 55.00739 | 82.61850 | 373 ft | 24 kts | 262° |
| 2026-05-06 08:22 | 55.00712 | 82.61526 | 373 ft | 27 kts | 261° |
| 2026-05-06 08:23 | 55.00682 | 82.61202 | 373 ft | 28 kts | 261° |
| 2026-05-06 08:23 | 55.00651 | 82.60871 | 373 ft | 28 kts | 262° |
| 2026-05-06 08:23 | 55.00714 | 82.60566 | 373 ft | 28 kts | 308° |
| 2026-05-06 08:23 | 55.00849 | 82.60323 | 373 ft | 28 kts | 334° |
| 2026-05-06 08:24 | 55.01042 | 82.60253 | 373 ft | 29 kts | 350° |
| 2026-05-06 08:24 | 55.01241 | 82.60194 | 373 ft | 29 kts | 350° |
| 2026-05-06 08:24 | 55.01443 | 82.60133 | 373 ft | 30 kts | 349° |
| 2026-05-06 08:24 | 55.01648 | 82.60068 | 373 ft | 30 kts | 350° |
| 2026-05-06 08:25 | 55.01854 | 82.60005 | 373 ft | 30 kts | 350° |
| 2026-05-06 08:25 | 55.02059 | 82.59942 | 373 ft | 30 kts | 349° |
| 2026-05-06 08:25 | 55.02260 | 82.59879 | 373 ft | 31 kts | 350° |
| 2026-05-06 08:25 | 55.02490 | 82.59809 | 373 ft | 33 kts | 350° |
| 2026-05-06 08:26 | 55.02706 | 82.59743 | 373 ft | 30 kts | 350° |
| 2026-05-06 08:26 | 55.02901 | 82.59683 | 373 ft | 27 kts | 350° |
| 2026-05-06 08:26 | 55.03072 | 82.59630 | 373 ft | 24 kts | 350° |
| 2026-05-06 08:26 | 55.03246 | 82.59577 | 373 ft | 26 kts | 350° |
| 2026-05-06 08:27 | 55.03429 | 82.59522 | 373 ft | 27 kts | 350° |
| 2026-05-06 08:27 | 55.03595 | 82.59522 | 373 ft | 20 kts | 28° |
| 2026-05-06 08:27 | 55.03709 | 82.59662 | 374 ft | 20 kts | 35° |
| 2026-05-06 08:27 | 55.03767 | 82.59733 | 375 ft | 5 kts | 38° |
| 2026-05-06 08:28 | 55.03766 | 82.59770 | 375 ft | 3 kts | 123° |
| 2026-05-06 08:28 | 55.03735 | 82.59791 | 375 ft | 7 kts | 169° |
| 2026-05-06 08:28 | 55.03528 | 82.59852 | 374 ft | 70 kts | 170° |
| 2026-05-06 08:28 | 55.02777 | 82.60086 | 373 ft | 146 kts | 169° |
| 2026-05-06 08:29 | 55.01639 | 82.60429 | 838 ft | 168 kts | 168° |
| 2026-05-06 08:29 | 55.00506 | 82.60816 | 1835 ft | 165 kts | 167° |
| 2026-05-06 08:29 | 54.99387 | 82.61226 | 2528 ft | 168 kts | 159° |
| 2026-05-06 08:29 | 54.98150 | 82.61713 | 2717 ft | 196 kts | 167° |
| 2026-05-06 08:30 | 54.96780 | 82.62171 | 3070 ft | 213 kts | 170° |
| 2026-05-06 08:30 | 54.95241 | 82.62660 | 3462 ft | 234 kts | 172° |
| 2026-05-06 08:30 | 54.93632 | 82.63344 | 4180 ft | 245 kts | 157° |
| 2026-05-06 08:30 | 54.92373 | 82.65399 | 4928 ft | 260 kts | 120° |
| 2026-05-06 08:31 | 54.92018 | 82.68507 | 5698 ft | 273 kts | 84° |
| 2026-05-06 08:31 | 54.92750 | 82.71558 | 6472 ft | 281 kts | 49° |
| 2026-05-06 08:31 | 54.94344 | 82.73472 | 7228 ft | 282 kts | 14° |
| 2026-05-06 08:31 | 54.96269 | 82.73658 | 7965 ft | 278 kts | 346° |
| 2026-05-06 08:32 | 54.98135 | 82.72978 | 8706 ft | 279 kts | 341° |
| 2026-05-06 08:32 | 55.00044 | 82.72235 | 9436 ft | 284 kts | 342° |
| 2026-05-06 08:32 | 55.01933 | 82.71500 | 10043 ft | 279 kts | 343° |
| 2026-05-06 08:32 | 55.03838 | 82.70748 | 10628 ft | 282 kts | 340° |
| 2026-05-06 08:33 | 55.05805 | 82.70238 | 11210 ft | 291 kts | 351° |
| 2026-05-06 08:33 | 55.07841 | 82.70106 | 11918 ft | 291 kts | 354° |
| 2026-05-06 08:33 | 55.09869 | 82.70144 | 12474 ft | 291 kts | 356° |
| 2026-05-06 08:33 | 55.11915 | 82.70263 | 12962 ft | 299 kts | 353° |
| 2026-05-06 08:34 | 55.14011 | 82.70349 | 13636 ft | 296 kts | 354° |
| 2026-05-06 08:34 | 55.18089 | 82.70519 | 14420 ft | 302 kts | 352° |
| 2026-05-06 08:34 | 55.20200 | 82.70515 | 15001 ft | 305 kts | 352° |
| 2026-05-06 08:35 | 55.22336 | 82.70471 | 15618 ft | 309 kts | 352° |
| 2026-05-06 08:35 | 55.24493 | 82.70425 | 16287 ft | 312 kts | 352° |
| 2026-05-06 08:35 | 55.26674 | 82.70384 | 16919 ft | 315 kts | 352° |
| 2026-05-06 08:35 | 55.28876 | 82.70346 | 17535 ft | 317 kts | 352° |
| 2026-05-06 08:36 | 55.31096 | 82.70303 | 18121 ft | 321 kts | 352° |
| 2026-05-06 08:36 | 55.33312 | 82.70280 | 18647 ft | 327 kts | 353° |
| 2026-05-06 08:36 | 55.35653 | 82.70270 | 18774 ft | 346 kts | 353° |
| 2026-05-06 08:36 | 55.38110 | 82.70263 | 18913 ft | 362 kts | 353° |
| 2026-05-06 08:37 | 55.40692 | 82.70263 | 19039 ft | 379 kts | 354° |
| 2026-05-06 08:37 | 55.43383 | 82.70271 | 19170 ft | 395 kts | 354° |
| 2026-05-06 08:37 | 55.46175 | 82.70279 | 19314 ft | 408 kts | 354° |
| 2026-05-06 08:37 | 55.49053 | 82.70295 | 19680 ft | 415 kts | 355° |
| 2026-05-06 08:38 | 55.51910 | 82.70312 | 20132 ft | 418 kts | 355° |
| 2026-05-06 08:38 | 55.54833 | 82.70325 | 20599 ft | 421 kts | 355° |
| 2026-05-06 08:38 | 55.57780 | 82.70329 | 21049 ft | 425 kts | 355° |
| 2026-05-06 08:38 | 55.60741 | 82.70331 | 21523 ft | 427 kts | 355° |
| 2026-05-06 08:39 | 55.63716 | 82.70332 | 21960 ft | 429 kts | 355° |
| 2026-05-06 08:39 | 55.66710 | 82.70331 | 22375 ft | 431 kts | 355° |
| 2026-05-06 08:39 | 55.69723 | 82.70327 | 22783 ft | 434 kts | 355° |
| 2026-05-06 08:39 | 55.72754 | 82.70326 | 23181 ft | 437 kts | 355° |
| 2026-05-06 08:40 | 55.75804 | 82.70331 | 23574 ft | 440 kts | 355° |
| 2026-05-06 08:40 | 55.78826 | 82.70339 | 23955 ft | 441 kts | 355° |
| 2026-05-06 08:40 | 55.81905 | 82.70345 | 24304 ft | 444 kts | 355° |
| 2026-05-06 08:40 | 55.85002 | 82.70334 | 24667 ft | 446 kts | 355° |
| 2026-05-06 08:41 | 55.88114 | 82.70320 | 25001 ft | 448 kts | 355° |
| 2026-05-06 08:41 | 55.91248 | 82.70313 | 25348 ft | 456 kts | 355° |
| 2026-05-06 08:41 | 55.94418 | 82.70312 | 25808 ft | 455 kts | 355° |
| 2026-05-06 08:41 | 55.97591 | 82.70321 | 26182 ft | 457 kts | 355° |
| 2026-05-06 08:42 | 56.00772 | 82.70292 | 26509 ft | 457 kts | 352° |
| 2026-05-06 08:42 | 56.03815 | 82.69294 | 26769 ft | 450 kts | 338° |
| 2026-05-06 08:42 | 56.06866 | 82.67920 | 27029 ft | 456 kts | 343° |
| 2026-05-06 08:42 | 56.09997 | 82.66899 | 27298 ft | 458 kts | 345° |
| 2026-05-06 08:43 | 56.13143 | 82.65878 | 27564 ft | 460 kts | 344° |
| 2026-05-06 08:43 | 56.16240 | 82.64519 | 27816 ft | 458 kts | 338° |
| 2026-05-06 08:43 | 56.19265 | 82.62738 | 28088 ft | 457 kts | 334° |
| 2026-05-06 08:43 | 56.22233 | 82.60675 | 28358 ft | 457 kts | 332° |
| 2026-05-06 08:44 | 56.25171 | 82.58475 | 28610 ft | 459 kts | 332° |
| 2026-05-06 08:44 | 56.28082 | 82.56278 | 28852 ft | 461 kts | 332° |
| 2026-05-06 08:44 | 56.31055 | 82.54096 | 29109 ft | 462 kts | 333° |
| 2026-05-06 08:44 | 56.34051 | 82.51983 | 29468 ft | 462 kts | 333° |
| 2026-05-06 08:45 | 56.37059 | 82.49935 | 29820 ft | 462 kts | 334° |
| 2026-05-06 08:45 | 56.40072 | 82.47929 | 30164 ft | 461 kts | 334° |
| 2026-05-06 08:45 | 56.43080 | 82.45932 | 30513 ft | 460 kts | 334° |
| 2026-05-06 08:45 | 56.46071 | 82.43927 | 30862 ft | 458 kts | 334° |
| 2026-05-06 08:46 | 56.49056 | 82.41913 | 31183 ft | 457 kts | 333° |
| 2026-05-06 08:46 | 56.51989 | 82.39913 | 31540 ft | 456 kts | 333° |
| 2026-05-06 08:46 | 56.54946 | 82.37878 | 31892 ft | 454 kts | 333° |
| 2026-05-06 08:46 | 56.57892 | 82.35837 | 32238 ft | 453 kts | 333° |
| 2026-05-06 08:47 | 56.60828 | 82.33799 | 32585 ft | 451 kts | 333° |
| 2026-05-06 08:47 | 56.63755 | 82.31773 | 32930 ft | 450 kts | 333° |
| 2026-05-06 08:47 | 56.66675 | 82.29756 | 33271 ft | 448 kts | 333° |
| 2026-05-06 08:47 | 56.69584 | 82.27747 | 33603 ft | 447 kts | 333° |
| 2026-05-06 08:48 | 56.72486 | 82.25738 | 33910 ft | 446 kts | 333° |
| 2026-05-06 08:48 | 56.75339 | 82.23752 | 34232 ft | 444 kts | 333° |
| 2026-05-06 08:48 | 56.78218 | 82.21742 | 34543 ft | 443 kts | 333° |
| 2026-05-06 08:48 | 56.81092 | 82.19736 | 34801 ft | 442 kts | 333° |
| 2026-05-06 08:49 | 56.83968 | 82.17735 | 35062 ft | 442 kts | 333° |
| 2026-05-06 08:49 | 56.86821 | 82.15751 | 35574 ft | 433 kts | 333° |
| 2026-05-06 08:49 | 56.89638 | 82.13790 | 35834 ft | 434 kts | 333° |
| 2026-05-06 08:50 | 56.95324 | 82.09791 | 35897 ft | 441 kts | 333° |
| 2026-05-06 08:50 | 57.00586 | 82.04459 | 35897 ft | 431 kts | 316° |
| 2026-05-06 08:51 | 57.04683 | 81.96639 | 35897 ft | 425 kts | 303° |
| 2026-05-06 08:51 | 57.08361 | 81.87980 | 35902 ft | 434 kts | 304° |
| 2026-05-06 08:52 | 57.12100 | 81.79139 | 35897 ft | 441 kts | 303° |
| 2026-05-06 08:52 | 57.15843 | 81.70259 | 35897 ft | 443 kts | 303° |
| 2026-05-06 08:53 | 57.19610 | 81.61279 | 35893 ft | 443 kts | 304° |
| 2026-05-06 08:53 | 57.23372 | 81.52290 | 35903 ft | 442 kts | 303° |
| 2026-05-06 08:54 | 57.27123 | 81.43271 | 35898 ft | 443 kts | 303° |
| 2026-05-06 08:54 | 57.30847 | 81.34286 | 35900 ft | 443 kts | 303° |
| 2026-05-06 08:55 | 57.34591 | 81.25212 | 35896 ft | 443 kts | 303° |
| 2026-05-06 08:55 | 57.38328 | 81.16136 | 35894 ft | 443 kts | 303° |
| 2026-05-06 08:56 | 57.42063 | 81.07048 | 35899 ft | 442 kts | 303° |
| 2026-05-06 08:56 | 57.45765 | 80.98008 | 35890 ft | 443 kts | 303° |
| 2026-05-06 08:57 | 57.49472 | 80.88869 | 35883 ft | 443 kts | 303° |
| 2026-05-06 08:57 | 57.53184 | 80.79690 | 35888 ft | 445 kts | 303° |
| 2026-05-06 08:58 | 57.56905 | 80.70473 | 35886 ft | 445 kts | 303° |
| 2026-05-06 08:58 | 57.60601 | 80.61289 | 35863 ft | 446 kts | 303° |
| 2026-05-06 08:59 | 57.64316 | 80.52003 | 35877 ft | 447 kts | 303° |
| 2026-05-06 08:59 | 57.68026 | 80.42714 | 35873 ft | 446 kts | 304° |
| 2026-05-06 09:00 | 57.71709 | 80.33492 | 35866 ft | 446 kts | 303° |
| 2026-05-06 09:00 | 57.75392 | 80.24253 | 35915 ft | 450 kts | 303° |
| 2026-05-06 09:01 | 57.79145 | 80.14766 | 35898 ft | 442 kts | 302° |
| 2026-05-06 09:01 | 57.82782 | 80.05383 | 35847 ft | 449 kts | 302° |
| 2026-05-06 09:02 | 57.86475 | 79.95944 | 35883 ft | 452 kts | 304° |
| 2026-05-06 09:02 | 57.90222 | 79.86426 | 35912 ft | 454 kts | 304° |
| 2026-05-06 09:03 | 57.93966 | 79.76838 | 35910 ft | 455 kts | 304° |
| 2026-05-06 09:03 | 57.97692 | 79.67213 | 35900 ft | 456 kts | 303° |
| 2026-05-06 09:04 | 58.01379 | 79.57525 | 35911 ft | 454 kts | 303° |
| 2026-05-06 09:04 | 58.05031 | 79.47870 | 35929 ft | 455 kts | 303° |
| 2026-05-06 09:05 | 58.08705 | 79.38135 | 35924 ft | 455 kts | 303° |
| 2026-05-06 09:05 | 58.12363 | 79.28382 | 35915 ft | 454 kts | 303° |
| 2026-05-06 09:06 | 58.16012 | 79.18638 | 35910 ft | 453 kts | 303° |
| 2026-05-06 09:06 | 58.19623 | 79.08956 | 35902 ft | 453 kts | 303° |
| 2026-05-06 09:07 | 58.23248 | 78.99188 | 35902 ft | 453 kts | 303° |
| 2026-05-06 09:07 | 58.26866 | 78.89393 | 35896 ft | 453 kts | 303° |
| 2026-05-06 09:08 | 58.30477 | 78.79591 | 35881 ft | 452 kts | 303° |
| 2026-05-06 09:08 | 58.34078 | 78.69777 | 35883 ft | 453 kts | 303° |
| 2026-05-06 09:09 | 58.37642 | 78.59972 | 35885 ft | 453 kts | 304° |
| 2026-05-06 09:09 | 58.41229 | 78.50109 | 35900 ft | 453 kts | 304° |
| 2026-05-06 09:10 | 58.44812 | 78.40244 | 35913 ft | 452 kts | 304° |
| 2026-05-06 09:10 | 58.48379 | 78.30360 | 35913 ft | 452 kts | 304° |
| 2026-05-06 09:11 | 58.51905 | 78.20524 | 35912 ft | 451 kts | 304° |
| 2026-05-06 09:11 | 58.55462 | 78.10613 | 35910 ft | 452 kts | 304° |
| 2026-05-06 09:12 | 58.59005 | 78.00670 | 35908 ft | 452 kts | 304° |
| 2026-05-06 09:12 | 58.62534 | 77.90699 | 35910 ft | 452 kts | 304° |
| 2026-05-06 09:13 | 58.66053 | 77.80709 | 35906 ft | 452 kts | 303° |
| 2026-05-06 09:13 | 58.69550 | 77.70771 | 35906 ft | 452 kts | 303° |
| 2026-05-06 09:14 | 58.73061 | 77.60750 | 35905 ft | 452 kts | 303° |
| 2026-05-06 09:14 | 58.76559 | 77.50707 | 35910 ft | 451 kts | 303° |
| 2026-05-06 09:15 | 58.80048 | 77.40665 | 35908 ft | 450 kts | 303° |
| 2026-05-06 09:15 | 58.83499 | 77.30692 | 35908 ft | 450 kts | 303° |
| 2026-05-06 09:16 | 58.86964 | 77.20636 | 35909 ft | 450 kts | 303° |
| 2026-05-06 09:16 | 58.90412 | 77.10558 | 35908 ft | 449 kts | 303° |
| 2026-05-06 09:17 | 58.93853 | 77.00472 | 35888 ft | 449 kts | 303° |
| 2026-05-06 09:17 | 58.97267 | 76.90425 | 35896 ft | 449 kts | 303° |
| 2026-05-06 09:18 | 59.00688 | 76.80316 | 35904 ft | 448 kts | 303° |
| 2026-05-06 09:18 | 59.04096 | 76.70198 | 35902 ft | 448 kts | 303° |
| 2026-05-06 09:19 | 59.07495 | 76.60047 | 35897 ft | 448 kts | 302° |
| 2026-05-06 09:19 | 59.10938 | 76.50062 | 35894 ft | 448 kts | 308° |
| 2026-05-06 09:20 | 59.15331 | 76.41470 | 35890 ft | 448 kts | 315° |
| 2026-05-06 09:20 | 59.19858 | 76.33123 | 35881 ft | 448 kts | 315° |
| 2026-05-06 09:21 | 59.24382 | 76.24735 | 35870 ft | 450 kts | 315° |
| 2026-05-06 09:21 | 59.28868 | 76.16338 | 35867 ft | 449 kts | 315° |
| 2026-05-06 09:22 | 59.33383 | 76.07852 | 35869 ft | 450 kts | 315° |
| 2026-05-06 09:22 | 59.37895 | 75.99384 | 35872 ft | 448 kts | 314° |
| 2026-05-06 09:23 | 59.42389 | 75.90896 | 35865 ft | 448 kts | 315° |
| 2026-05-06 09:23 | 59.46844 | 75.82448 | 35864 ft | 448 kts | 315° |
| 2026-05-06 09:24 | 59.51322 | 75.73947 | 35861 ft | 448 kts | 315° |
| 2026-05-06 09:24 | 59.55785 | 75.65415 | 35864 ft | 447 kts | 315° |
| 2026-05-06 09:25 | 59.60174 | 75.57019 | 35849 ft | 429 kts | 315° |
| 2026-05-06 09:25 | 59.64412 | 75.48869 | 35850 ft | 423 kts | 314° |
| 2026-05-06 09:26 | 59.68589 | 75.40786 | 35809 ft | 423 kts | 314° |
| 2026-05-06 09:26 | 59.70693 | 75.36703 | 35240 ft | 426 kts | 314° |
| 2026-05-06 09:26 | 59.72817 | 75.32576 | 34409 ft | 430 kts | 315° |
| 2026-05-06 09:26 | 59.75047 | 75.28666 | 33900 ft | 426 kts | 323° |
| 2026-05-06 09:27 | 59.77530 | 75.25523 | 33346 ft | 423 kts | 331° |
| 2026-05-06 09:27 | 59.80103 | 75.22743 | 32786 ft | 420 kts | 330° |
| 2026-05-06 09:27 | 59.82659 | 75.19973 | 32234 ft | 416 kts | 330° |
| 2026-05-06 09:27 | 59.85151 | 75.17255 | 31700 ft | 413 kts | 330° |
| 2026-05-06 09:28 | 59.87655 | 75.14509 | 31169 ft | 409 kts | 330° |
| 2026-05-06 09:28 | 59.90137 | 75.11782 | 30634 ft | 407 kts | 329° |
| 2026-05-06 09:28 | 59.92606 | 75.09073 | 30118 ft | 403 kts | 329° |
| 2026-05-06 09:28 | 59.95049 | 75.06388 | 29600 ft | 399 kts | 329° |
| 2026-05-06 09:29 | 59.97470 | 75.03723 | 29090 ft | 395 kts | 329° |
| 2026-05-06 09:29 | 59.99861 | 75.01078 | 28598 ft | 390 kts | 329° |
| 2026-05-06 09:29 | 60.02220 | 74.98471 | 28113 ft | 386 kts | 329° |
| 2026-05-06 09:29 | 60.04559 | 74.95888 | 27649 ft | 382 kts | 328° |
| 2026-05-06 09:30 | 60.06840 | 74.93365 | 27191 ft | 377 kts | 328° |
| 2026-05-06 09:30 | 60.09124 | 74.90834 | 26738 ft | 373 kts | 328° |
| 2026-05-06 09:30 | 60.11374 | 74.88334 | 26306 ft | 369 kts | 328° |
| 2026-05-06 09:30 | 60.13604 | 74.85843 | 25870 ft | 365 kts | 328° |
| 2026-05-06 09:31 | 60.15810 | 74.83373 | 25428 ft | 361 kts | 328° |
| 2026-05-06 09:31 | 60.17994 | 74.80929 | 24990 ft | 357 kts | 328° |
| 2026-05-06 09:31 | 60.20150 | 74.78508 | 24553 ft | 353 kts | 328° |
| 2026-05-06 09:31 | 60.22286 | 74.76111 | 24114 ft | 350 kts | 328° |
| 2026-05-06 09:32 | 60.24372 | 74.73771 | 23681 ft | 347 kts | 328° |
| 2026-05-06 09:32 | 60.26470 | 74.71420 | 23236 ft | 344 kts | 328° |
| 2026-05-06 09:32 | 60.28555 | 74.69087 | 22793 ft | 342 kts | 328° |
| 2026-05-06 09:32 | 60.30624 | 74.66764 | 22350 ft | 339 kts | 328° |
| 2026-05-06 09:33 | 60.32678 | 74.64448 | 21914 ft | 338 kts | 328° |
| 2026-05-06 09:33 | 60.34721 | 74.62133 | 21469 ft | 336 kts | 327° |
| 2026-05-06 09:33 | 60.36754 | 74.59825 | 21042 ft | 334 kts | 327° |
| 2026-05-06 09:33 | 60.38775 | 74.57531 | 20609 ft | 333 kts | 327° |
| 2026-05-06 09:34 | 60.40788 | 74.55246 | 20173 ft | 331 kts | 327° |
| 2026-05-06 09:34 | 60.42764 | 74.53002 | 19751 ft | 329 kts | 327° |
| 2026-05-06 09:34 | 60.44759 | 74.50738 | 19327 ft | 328 kts | 327° |
| 2026-05-06 09:34 | 60.46745 | 74.48480 | 18919 ft | 327 kts | 327° |
| 2026-05-06 09:35 | 60.48716 | 74.46228 | 18507 ft | 324 kts | 327° |
| 2026-05-06 09:35 | 60.50676 | 74.43987 | 18096 ft | 322 kts | 327° |
| 2026-05-06 09:35 | 60.52621 | 74.41757 | 17690 ft | 321 kts | 327° |
| 2026-05-06 09:35 | 60.54558 | 74.39533 | 17284 ft | 318 kts | 327° |
| 2026-05-06 09:36 | 60.56482 | 74.37320 | 16880 ft | 317 kts | 327° |
| 2026-05-06 09:36 | 60.58400 | 74.35114 | 16483 ft | 316 kts | 327° |
| 2026-05-06 09:36 | 60.60286 | 74.32941 | 16101 ft | 315 kts | 327° |
| 2026-05-06 09:36 | 60.62194 | 74.30763 | 15710 ft | 314 kts | 328° |
| 2026-05-06 09:37 | 60.64098 | 74.28608 | 15333 ft | 313 kts | 328° |
| 2026-05-06 09:37 | 60.65996 | 74.26467 | 14936 ft | 312 kts | 328° |
| 2026-05-06 09:37 | 60.67882 | 74.24330 | 14551 ft | 309 kts | 328° |
| 2026-05-06 09:37 | 60.69762 | 74.22195 | 14161 ft | 308 kts | 328° |
| 2026-05-06 09:38 | 60.71635 | 74.20059 | 13775 ft | 309 kts | 327° |
| 2026-05-06 09:38 | 60.73504 | 74.17918 | 13392 ft | 308 kts | 328° |
| 2026-05-06 09:38 | 60.75367 | 74.15786 | 13008 ft | 306 kts | 328° |
| 2026-05-06 09:38 | 60.77194 | 74.13688 | 12625 ft | 305 kts | 327° |
| 2026-05-06 09:39 | 60.79040 | 74.11565 | 12234 ft | 303 kts | 327° |
| 2026-05-06 09:39 | 60.80872 | 74.09463 | 11856 ft | 301 kts | 327° |
| 2026-05-06 09:39 | 60.82695 | 74.07368 | 11455 ft | 300 kts | 327° |
| 2026-05-06 09:39 | 60.84553 | 74.05429 | 11063 ft | 302 kts | 334° |
| 2026-05-06 09:40 | 60.86539 | 74.04007 | 10657 ft | 303 kts | 337° |
| 2026-05-06 09:40 | 60.88532 | 74.02602 | 10265 ft | 302 kts | 336° |
| 2026-05-06 09:40 | 60.92455 | 73.99845 | 9724 ft | 290 kts | 338° |
| 2026-05-06 09:41 | 60.94321 | 73.98546 | 9460 ft | 285 kts | 336° |
| 2026-05-06 09:41 | 60.96188 | 73.97227 | 9101 ft | 283 kts | 337° |
| 2026-05-06 09:41 | 60.98041 | 73.95922 | 8731 ft | 281 kts | 336° |
| 2026-05-06 09:41 | 60.99890 | 73.94622 | 8342 ft | 280 kts | 336° |
| 2026-05-06 09:42 | 61.01733 | 73.93323 | 7972 ft | 280 kts | 336° |
| 2026-05-06 09:42 | 61.03572 | 73.92019 | 7571 ft | 279 kts | 336° |
| 2026-05-06 09:42 | 61.05415 | 73.90716 | 7185 ft | 280 kts | 336° |
| 2026-05-06 09:42 | 61.07254 | 73.89408 | 6803 ft | 280 kts | 336° |
| 2026-05-06 09:43 | 61.09070 | 73.88110 | 6420 ft | 279 kts | 336° |
| 2026-05-06 09:43 | 61.10898 | 73.86819 | 6040 ft | 277 kts | 337° |
| 2026-05-06 09:43 | 61.12712 | 73.85548 | 5656 ft | 274 kts | 336° |
| 2026-05-06 09:43 | 61.14509 | 73.84266 | 5293 ft | 271 kts | 336° |
| 2026-05-06 09:44 | 61.16278 | 73.83003 | 4924 ft | 268 kts | 336° |
| 2026-05-06 09:44 | 61.18044 | 73.81751 | 4568 ft | 265 kts | 338° |
| 2026-05-06 09:44 | 61.19763 | 73.80523 | 4351 ft | 258 kts | 336° |
| 2026-05-06 09:44 | 61.21442 | 73.79311 | 4058 ft | 255 kts | 336° |
| 2026-05-06 09:45 | 61.23095 | 73.78108 | 3724 ft | 255 kts | 337° |
| 2026-05-06 09:45 | 61.24765 | 73.76900 | 3375 ft | 254 kts | 336° |
| 2026-05-06 09:45 | 61.26434 | 73.75697 | 3029 ft | 254 kts | 336° |
| 2026-05-06 09:45 | 61.28096 | 73.74500 | 2679 ft | 251 kts | 337° |
| 2026-05-06 09:46 | 61.29739 | 73.73318 | 2344 ft | 248 kts | 338° |
| 2026-05-06 09:46 | 61.31282 | 73.71840 | 2116 ft | 238 kts | 317° |
| 2026-05-06 09:46 | 61.32444 | 73.69554 | 2080 ft | 223 kts | 311° |
| 2026-05-06 09:46 | 61.33493 | 73.67328 | 2098 ft | 208 kts | 304° |
| 2026-05-06 09:47 | 61.34179 | 73.64878 | 2119 ft | 183 kts | 285° |
| 2026-05-06 09:47 | 61.34426 | 73.62471 | 1987 ft | 164 kts | 268° |
| 2026-05-06 09:47 | 61.34423 | 73.60165 | 1813 ft | 155 kts | 266° |
| 2026-05-06 09:47 | 61.34424 | 73.58008 | 1650 ft | 143 kts | 265° |
| 2026-05-06 09:48 | 61.34420 | 73.55957 | 1453 ft | 141 kts | 265° |
| 2026-05-06 09:48 | 61.34417 | 73.53936 | 1268 ft | 139 kts | 266° |
| 2026-05-06 09:48 | 61.34414 | 73.51927 | 1089 ft | 139 kts | 265° |
| 2026-05-06 09:48 | 61.34406 | 73.49925 | 902 ft | 137 kts | 266° |
| 2026-05-06 09:49 | 61.34388 | 73.47933 | 697 ft | 138 kts | 267° |
| 2026-05-06 09:49 | 61.34401 | 73.45938 | 552 ft | 139 kts | 269° |
| 2026-05-06 09:49 | 61.34404 | 73.43949 | 345 ft | 139 kts | 267° |
| 2026-05-06 09:49 | 61.34404 | 73.41956 | 209 ft | 131 kts | 266° |
| 2026-05-06 09:50 | 61.34387 | 73.40361 | 210 ft | 86 kts | 270° |
| 2026-05-06 09:50 | 61.34384 | 73.39467 | 210 ft | 41 kts | 270° |
| 2026-05-06 09:50 | 61.34384 | 73.39050 | 202 ft | 22 kts | 270° |
| 2026-05-06 09:50 | 61.34311 | 73.38902 | 205 ft | 14 kts | 181° |
| 2026-05-06 09:51 | 61.34234 | 73.38901 | 213 ft | 10 kts | 180° |
| 2026-05-06 09:51 | 61.34180 | 73.38956 | 211 ft | 10 kts | 112° |
| 2026-05-06 09:51 | 61.34176 | 73.39256 | 211 ft | 31 kts | 89° |
| 2026-05-06 09:51 | 61.34178 | 73.39717 | 211 ft | 32 kts | 90° |
| 2026-05-06 09:52 | 61.34179 | 73.40191 | 213 ft | 33 kts | 89° |
| 2026-05-06 09:52 | 61.34180 | 73.40491 | 208 ft | 10 kts | 90° |
| 2026-05-06 09:52 | 61.34148 | 73.40590 | 208 ft | 8 kts | 160° |
| 2026-05-06 09:52 | 61.34098 | 73.40596 | 208 ft | 6 kts | 180° |
| 2026-05-06 09:53 | 61.34088 | 73.40596 | 208 ft | 0 kts | 179° |